sensor_id;sensor_type;location;lat;lon;timestamp;pressure;altitude;pressure_sealevel;temperature;humidity
76074;BME280;64776;42.636;24.358;2022-11-20T00:01:09;89712.00;;;7.38;91.80
76074;BME280;64776;42.636;24.358;2022-11-20T00:04:12;89724.16;;;7.45;92.40
76074;BME280;64776;42.636;24.358;2022-11-20T00:07:12;89730.16;;;7.60;93.04
76074;BME280;64776;42.636;24.358;2022-11-20T00:10:13;89731.50;;;7.90;91.92
76074;BME280;64776;42.636;24.358;2022-11-20T00:13:14;89730.13;;;7.75;92.27
76074;BME280;64776;42.636;24.358;2022-11-20T00:16:17;89720.28;;;7.81;89.89
76074;BME280;64776;42.636;24.358;2022-11-20T00:19:19;89728.84;;;7.70;89.87
76074;BME280;64776;42.636;24.358;2022-11-20T00:22:20;89716.34;;;7.56;91.00
76074;BME280;64776;42.636;24.358;2022-11-20T00:25:21;89724.69;;;7.49;92.43
76074;BME280;64776;42.636;24.358;2022-11-20T00:28:22;89724.19;;;7.65;92.06
76074;BME280;64776;42.636;24.358;2022-11-20T00:31:22;89711.91;;;7.88;93.07
76074;BME280;64776;42.636;24.358;2022-11-20T00:34:24;89718.75;;;8.14;91.22
76074;BME280;64776;42.636;24.358;2022-11-20T00:37:25;89714.25;;;8.00;92.18
76074;BME280;64776;42.636;24.358;2022-11-20T00:40:26;89723.81;;;8.12;89.79
76074;BME280;64776;42.636;24.358;2022-11-20T00:43:27;89709.28;;;7.53;90.36
76074;BME280;64776;42.636;24.358;2022-11-20T00:46:28;89702.28;;;7.70;90.32
76074;BME280;64776;42.636;24.358;2022-11-20T00:49:30;89722.56;;;7.53;90.17
76074;BME280;64776;42.636;24.358;2022-11-20T00:52:31;89720.06;;;7.64;90.50
76074;BME280;64776;42.636;24.358;2022-11-20T00:55:32;89708.22;;;7.45;91.05
76074;BME280;64776;42.636;24.358;2022-11-20T00:58:34;89708.50;;;7.67;90.64
76074;BME280;64776;42.636;24.358;2022-11-20T01:01:36;89707.97;;;7.63;91.43
76074;BME280;64776;42.636;24.358;2022-11-20T01:04:38;89705.00;;;7.76;90.75
76074;BME280;64776;42.636;24.358;2022-11-20T01:07:39;89702.81;;;7.74;90.21
76074;BME280;64776;42.636;24.358;2022-11-20T01:10:40;89703.13;;;7.62;90.46
76074;BME280;64776;42.636;24.358;2022-11-20T01:13:41;89697.44;;;7.89;90.24
76074;BME280;64776;42.636;24.358;2022-11-20T01:16:44;89705.34;;;7.83;89.31
76074;BME280;64776;42.636;24.358;2022-11-20T01:19:48;89696.13;;;7.44;90.70
76074;BME280;64776;42.636;24.358;2022-11-20T01:22:49;89692.13;;;7.69;91.51
76074;BME280;64776;42.636;24.358;2022-11-20T01:25:50;89693.13;;;7.71;91.38
76074;BME280;64776;42.636;24.358;2022-11-20T01:28:50;89695.25;;;7.67;91.41
76074;BME280;64776;42.636;24.358;2022-11-20T01:31:52;89693.13;;;7.71;92.15
76074;BME280;64776;42.636;24.358;2022-11-20T01:34:55;89684.50;;;7.96;90.07
76074;BME280;64776;42.636;24.358;2022-11-20T01:37:55;89685.03;;;7.60;89.50
76074;BME280;64776;42.636;24.358;2022-11-20T01:40:56;89689.34;;;7.58;91.02
76074;BME280;64776;42.636;24.358;2022-11-20T01:43:57;89679.56;;;7.69;91.14
76074;BME280;64776;42.636;24.358;2022-11-20T01:46:59;89685.41;;;7.73;90.99
76074;BME280;64776;42.636;24.358;2022-11-20T01:50:06;89686.88;;;7.74;91.50
76074;BME280;64776;42.636;24.358;2022-11-20T01:53:15;89684.63;;;7.87;89.68
76074;BME280;64776;42.636;24.358;2022-11-20T01:56:17;89682.63;;;7.82;89.25
76074;BME280;64776;42.636;24.358;2022-11-20T01:59:18;89686.94;;;7.60;89.82
76074;BME280;64776;42.636;24.358;2022-11-20T02:02:20;89682.91;;;7.64;89.50
76074;BME280;64776;42.636;24.358;2022-11-20T02:05:27;89674.78;;;7.53;89.52
76074;BME280;64776;42.636;24.358;2022-11-20T02:08:29;89672.03;;;7.62;88.76
76074;BME280;64776;42.636;24.358;2022-11-20T02:11:31;89675.84;;;7.61;89.38
76074;BME280;64776;42.636;24.358;2022-11-20T02:14:32;89671.22;;;7.56;89.27
76074;BME280;64776;42.636;24.358;2022-11-20T02:17:32;89664.22;;;7.59;89.02
76074;BME280;64776;42.636;24.358;2022-11-20T02:20:35;89657.69;;;7.54;89.61
76074;BME280;64776;42.636;24.358;2022-11-20T02:23:38;89653.03;;;7.49;89.80
76074;BME280;64776;42.636;24.358;2022-11-20T02:26:46;89646.50;;;7.50;89.83
76074;BME280;64776;42.636;24.358;2022-11-20T02:29:51;89642.13;;;7.47;89.17
76074;BME280;64776;42.636;24.358;2022-11-20T02:32:53;89646.31;;;7.33;89.59
76074;BME280;64776;42.636;24.358;2022-11-20T02:35:54;89645.00;;;7.44;90.08
76074;BME280;64776;42.636;24.358;2022-11-20T02:38:55;89638.16;;;7.37;89.73
76074;BME280;64776;42.636;24.358;2022-11-20T02:41:57;89651.19;;;7.20;90.12
76074;BME280;64776;42.636;24.358;2022-11-20T02:44:58;89658.47;;;7.25;89.68
76074;BME280;64776;42.636;24.358;2022-11-20T02:47:59;89664.41;;;7.00;89.80
76074;BME280;64776;42.636;24.358;2022-11-20T02:51:00;89660.19;;;7.08;89.50
76074;BME280;64776;42.636;24.358;2022-11-20T02:54:01;89650.84;;;7.13;89.16
76074;BME280;64776;42.636;24.358;2022-11-20T02:57:03;89650.63;;;6.96;89.49
76074;BME280;64776;42.636;24.358;2022-11-20T03:00:05;89652.19;;;6.88;89.79
76074;BME280;64776;42.636;24.358;2022-11-20T03:03:06;89661.75;;;7.00;89.48
76074;BME280;64776;42.636;24.358;2022-11-20T03:06:07;89660.59;;;6.87;89.94
76074;BME280;64776;42.636;24.358;2022-11-20T03:09:08;89666.81;;;6.84;89.86
76074;BME280;64776;42.636;24.358;2022-11-20T03:12:10;89661.81;;;6.71;90.46
76074;BME280;64776;42.636;24.358;2022-11-20T03:15:11;89662.78;;;6.88;89.54
76074;BME280;64776;42.636;24.358;2022-11-20T03:18:12;89671.56;;;6.94;89.50
76074;BME280;64776;42.636;24.358;2022-11-20T03:21:13;89671.28;;;6.92;90.16
76074;BME280;64776;42.636;24.358;2022-11-20T03:24:15;89674.09;;;7.03;89.61
76074;BME280;64776;42.636;24.358;2022-11-20T03:27:17;89679.03;;;7.10;90.48
76074;BME280;64776;42.636;24.358;2022-11-20T03:30:18;89678.63;;;7.17;90.42
76074;BME280;64776;42.636;24.358;2022-11-20T03:33:19;89676.63;;;7.27;90.60
76074;BME280;64776;42.636;24.358;2022-11-20T03:36:20;89682.06;;;7.38;89.99
76074;BME280;64776;42.636;24.358;2022-11-20T03:39:21;89682.78;;;7.38;90.53
76074;BME280;64776;42.636;24.358;2022-11-20T03:42:23;89674.19;;;7.44;90.57
76074;BME280;64776;42.636;24.358;2022-11-20T03:45:24;89688.38;;;7.40;90.44
76074;BME280;64776;42.636;24.358;2022-11-20T03:48:25;89673.72;;;7.65;90.87
76074;BME280;64776;42.636;24.358;2022-11-20T03:51:27;89681.38;;;7.78;91.08
76074;BME280;64776;42.636;24.358;2022-11-20T03:54:29;89674.94;;;7.84;91.19
76074;BME280;64776;42.636;24.358;2022-11-20T03:57:32;89667.16;;;8.01;91.72
76074;BME280;64776;42.636;24.358;2022-11-20T04:00:32;89676.41;;;8.26;91.29
76074;BME280;64776;42.636;24.358;2022-11-20T04:03:34;89673.59;;;8.60;90.46
76074;BME280;64776;42.636;24.358;2022-11-20T04:06:36;89679.72;;;8.72;90.63
76074;BME280;64776;42.636;24.358;2022-11-20T04:09:37;89685.44;;;8.90;89.98
76074;BME280;64776;42.636;24.358;2022-11-20T04:12:40;89668.66;;;9.05;90.56
76074;BME280;64776;42.636;24.358;2022-11-20T04:15:40;89670.00;;;8.94;88.55
76074;BME280;64776;42.636;24.358;2022-11-20T04:18:41;89680.75;;;8.80;89.28
76074;BME280;64776;42.636;24.358;2022-11-20T04:21:42;89686.66;;;8.89;90.18
76074;BME280;64776;42.636;24.358;2022-11-20T04:24:44;89680.88;;;9.22;89.85
76074;BME280;64776;42.636;24.358;2022-11-20T04:27:46;89677.53;;;9.27;88.93
76074;BME280;64776;42.636;24.358;2022-11-20T04:30:46;89679.06;;;9.39;88.64
76074;BME280;64776;42.636;24.358;2022-11-20T04:33:47;89677.97;;;9.26;88.63
76074;BME280;64776;42.636;24.358;2022-11-20T04:36:48;89678.47;;;9.30;88.93
76074;BME280;64776;42.636;24.358;2022-11-20T04:39:49;89680.72;;;9.37;89.22
76074;BME280;64776;42.636;24.358;2022-11-20T04:42:51;89676.41;;;9.45;88.49
76074;BME280;64776;42.636;24.358;2022-11-20T04:45:52;89672.34;;;9.55;87.70
76074;BME280;64776;42.636;24.358;2022-11-20T04:48:53;89670.91;;;9.54;88.41
76074;BME280;64776;42.636;24.358;2022-11-20T04:51:54;89670.84;;;9.43;87.55
76074;BME280;64776;42.636;24.358;2022-11-20T04:54:54;89658.06;;;9.52;88.19
76074;BME280;64776;42.636;24.358;2022-11-20T04:57:57;89649.22;;;9.77;87.86
76074;BME280;64776;42.636;24.358;2022-11-20T05:01:01;89660.94;;;9.97;87.17
76074;BME280;64776;42.636;24.358;2022-11-20T05:04:02;89656.94;;;10.18;86.59
76074;BME280;64776;42.636;24.358;2022-11-20T05:07:03;89650.19;;;10.28;86.76
76074;BME280;64776;42.636;24.358;2022-11-20T05:10:05;89649.44;;;10.27;85.61
76074;BME280;64776;42.636;24.358;2022-11-20T05:13:07;89647.72;;;10.24;85.80
76074;BME280;64776;42.636;24.358;2022-11-20T05:16:09;89650.63;;;10.15;85.64
76074;BME280;64776;42.636;24.358;2022-11-20T05:19:10;89655.47;;;10.17;86.12
76074;BME280;64776;42.636;24.358;2022-11-20T05:22:11;89652.44;;;9.93;86.10
76074;BME280;64776;42.636;24.358;2022-11-20T05:25:12;89666.94;;;9.80;86.52
76074;BME280;64776;42.636;24.358;2022-11-20T05:28:14;89662.13;;;9.96;85.50
76074;BME280;64776;42.636;24.358;2022-11-20T05:31:17;89655.31;;;9.83;87.16
76074;BME280;64776;42.636;24.358;2022-11-20T05:34:18;89653.38;;;9.90;86.53
76074;BME280;64776;42.636;24.358;2022-11-20T05:37:19;89660.97;;;10.02;86.58
76074;BME280;64776;42.636;24.358;2022-11-20T05:40:20;89660.97;;;10.02;86.26
76074;BME280;64776;42.636;24.358;2022-11-20T05:43:22;89652.25;;;10.07;86.16
76074;BME280;64776;42.636;24.358;2022-11-20T05:46:23;89653.88;;;9.82;85.95
76074;BME280;64776;42.636;24.358;2022-11-20T05:49:23;89670.06;;;9.79;85.49
76074;BME280;64776;42.636;24.358;2022-11-20T05:52:27;89661.84;;;9.82;85.71
76074;BME280;64776;42.636;24.358;2022-11-20T05:55:28;89671.28;;;9.83;85.92
76074;BME280;64776;42.636;24.358;2022-11-20T05:58:31;89669.34;;;9.78;86.03
76074;BME280;64776;42.636;24.358;2022-11-20T06:01:32;89671.78;;;9.88;85.98
76074;BME280;64776;42.636;24.358;2022-11-20T06:04:33;89691.34;;;10.16;85.61
76074;BME280;64776;42.636;24.358;2022-11-20T06:07:34;89687.72;;;10.24;85.85
76074;BME280;64776;42.636;24.358;2022-11-20T06:10:35;89676.09;;;10.22;86.18
76074;BME280;64776;42.636;24.358;2022-11-20T06:13:37;89682.63;;;10.21;85.49
76074;BME280;64776;42.636;24.358;2022-11-20T06:16:38;89682.41;;;10.30;85.67
76074;BME280;64776;42.636;24.358;2022-11-20T06:19:39;89688.25;;;10.45;84.95
76074;BME280;64776;42.636;24.358;2022-11-20T06:22:40;89673.00;;;10.51;85.07
76074;BME280;64776;42.636;24.358;2022-11-20T06:25:42;89684.19;;;10.55;85.00
76074;BME280;64776;42.636;24.358;2022-11-20T06:28:45;89683.47;;;10.65;84.80
76074;BME280;64776;42.636;24.358;2022-11-20T06:31:45;89687.38;;;10.76;84.86
76074;BME280;64776;42.636;24.358;2022-11-20T06:34:46;89701.19;;;10.74;84.81
76074;BME280;64776;42.636;24.358;2022-11-20T06:37:48;89704.59;;;10.80;84.71
76074;BME280;64776;42.636;24.358;2022-11-20T06:40:49;89702.19;;;10.82;84.24
76074;BME280;64776;42.636;24.358;2022-11-20T06:43:51;89699.25;;;10.80;84.49
76074;BME280;64776;42.636;24.358;2022-11-20T06:46:52;89690.78;;;10.87;84.35
76074;BME280;64776;42.636;24.358;2022-11-20T06:49:53;89696.41;;;11.00;83.98
76074;BME280;64776;42.636;24.358;2022-11-20T06:52:54;89701.25;;;11.24;82.95
76074;BME280;64776;42.636;24.358;2022-11-20T06:55:56;89699.81;;;11.28;82.73
76074;BME280;64776;42.636;24.358;2022-11-20T06:58:58;89700.50;;;11.23;82.94
76074;BME280;64776;42.636;24.358;2022-11-20T07:01:59;89700.78;;;11.31;83.36
76074;BME280;64776;42.636;24.358;2022-11-20T07:05:00;89703.44;;;11.20;83.84
76074;BME280;64776;42.636;24.358;2022-11-20T07:08:01;89718.25;;;11.26;83.63
76074;BME280;64776;42.636;24.358;2022-11-20T07:11:04;89724.06;;;11.53;83.86
76074;BME280;64776;42.636;24.358;2022-11-20T07:14:07;89717.28;;;11.68;83.34
76074;BME280;64776;42.636;24.358;2022-11-20T07:17:07;89709.97;;;11.91;82.35
76074;BME280;64776;42.636;24.358;2022-11-20T07:20:09;89706.53;;;12.07;81.09
76074;BME280;64776;42.636;24.358;2022-11-20T07:23:10;89717.66;;;12.22;81.03
76074;BME280;64776;42.636;24.358;2022-11-20T07:26:11;89712.75;;;12.37;79.87
76074;BME280;64776;42.636;24.358;2022-11-20T07:29:13;89708.06;;;12.54;80.28
76074;BME280;64776;42.636;24.358;2022-11-20T07:32:14;89718.41;;;12.74;78.26
76074;BME280;64776;42.636;24.358;2022-11-20T07:35:15;89720.81;;;12.83;77.06
76074;BME280;64776;42.636;24.358;2022-11-20T07:38:15;89710.03;;;12.94;77.06
76074;BME280;64776;42.636;24.358;2022-11-20T07:41:16;89717.53;;;13.01;77.40
76074;BME280;64776;42.636;24.358;2022-11-20T07:44:18;89708.53;;;13.04;77.54
76074;BME280;64776;42.636;24.358;2022-11-20T07:47:19;89715.94;;;12.87;78.10
76074;BME280;64776;42.636;24.358;2022-11-20T07:50:20;89721.75;;;12.91;78.00
76074;BME280;64776;42.636;24.358;2022-11-20T07:53:21;89711.53;;;12.90;78.37
76074;BME280;64776;42.636;24.358;2022-11-20T07:56:22;89716.31;;;13.02;78.09
76074;BME280;64776;42.636;24.358;2022-11-20T07:59:24;89702.91;;;13.02;78.50
76074;BME280;64776;42.636;24.358;2022-11-20T08:02:25;89706.56;;;13.11;77.08
76074;BME280;64776;42.636;24.358;2022-11-20T08:05:26;89712.84;;;13.19;77.55
76074;BME280;64776;42.636;24.358;2022-11-20T08:08:27;89710.84;;;13.25;76.69
76074;BME280;64776;42.636;24.358;2022-11-20T08:11:28;89706.88;;;13.37;76.57
76074;BME280;64776;42.636;24.358;2022-11-20T08:14:31;89713.94;;;13.34;75.73
76074;BME280;64776;42.636;24.358;2022-11-20T08:17:31;89717.50;;;13.48;75.60
76074;BME280;64776;42.636;24.358;2022-11-20T08:20:33;89715.69;;;13.61;73.01
76074;BME280;64776;42.636;24.358;2022-11-20T08:23:34;89706.16;;;13.66;73.10
76074;BME280;64776;42.636;24.358;2022-11-20T08:26:36;89699.47;;;13.78;73.38
76074;BME280;64776;42.636;24.358;2022-11-20T08:29:38;89704.75;;;13.83;74.05
76074;BME280;64776;42.636;24.358;2022-11-20T08:32:39;89705.50;;;13.84;74.57
76074;BME280;64776;42.636;24.358;2022-11-20T08:35:40;89699.56;;;13.91;75.06
76074;BME280;64776;42.636;24.358;2022-11-20T08:38:41;89707.91;;;14.12;74.74
76074;BME280;64776;42.636;24.358;2022-11-20T08:41:41;89703.72;;;14.16;72.73
76074;BME280;64776;42.636;24.358;2022-11-20T08:44:43;89698.78;;;14.20;73.75
76074;BME280;64776;42.636;24.358;2022-11-20T08:47:44;89696.56;;;14.24;73.79
76074;BME280;64776;42.636;24.358;2022-11-20T08:50:45;89695.56;;;14.03;73.53
76074;BME280;64776;42.636;24.358;2022-11-20T08:53:46;89694.56;;;14.06;74.70
76074;BME280;64776;42.636;24.358;2022-11-20T08:56:47;89703.84;;;14.05;74.27
76074;BME280;64776;42.636;24.358;2022-11-20T08:59:50;89686.28;;;14.04;72.03
76074;BME280;64776;42.636;24.358;2022-11-20T09:02:50;89678.91;;;14.10;71.97
76074;BME280;64776;42.636;24.358;2022-11-20T09:05:51;89674.94;;;14.17;69.93
76074;BME280;64776;42.636;24.358;2022-11-20T09:08:52;89672.97;;;14.17;71.56
76074;BME280;64776;42.636;24.358;2022-11-20T09:11:53;89667.25;;;14.26;71.66
76074;BME280;64776;42.636;24.358;2022-11-20T09:14:55;89662.53;;;14.38;71.11
76074;BME280;64776;42.636;24.358;2022-11-20T09:17:57;89664.78;;;14.52;72.20
76074;BME280;64776;42.636;24.358;2022-11-20T09:20:59;89662.03;;;14.58;71.74
76074;BME280;64776;42.636;24.358;2022-11-20T09:23:59;89653.66;;;14.43;71.12
76074;BME280;64776;42.636;24.358;2022-11-20T09:27:04;89653.53;;;14.35;70.94
76074;BME280;64776;42.636;24.358;2022-11-20T09:30:07;89647.88;;;14.15;71.06
76074;BME280;64776;42.636;24.358;2022-11-20T09:33:08;89656.00;;;14.09;71.67
76074;BME280;64776;42.636;24.358;2022-11-20T09:36:08;89653.53;;;14.11;72.56
76074;BME280;64776;42.636;24.358;2022-11-20T09:39:09;89652.72;;;14.16;71.48
76074;BME280;64776;42.636;24.358;2022-11-20T09:42:32;89651.66;;;14.25;71.92
76074;BME280;64776;42.636;24.358;2022-11-20T09:45:48;89640.47;;;14.45;70.71
76074;BME280;64776;42.636;24.358;2022-11-20T09:49:05;89644.31;;;14.49;70.22
76074;BME280;64776;42.636;24.358;2022-11-20T09:52:19;89635.47;;;14.73;70.29
76074;BME280;64776;42.636;24.358;2022-11-20T09:55:22;89626.34;;;14.82;68.84
76074;BME280;64776;42.636;24.358;2022-11-20T09:58:29;89628.34;;;14.76;67.31
76074;BME280;64776;42.636;24.358;2022-11-20T10:01:35;89635.19;;;14.77;67.55
76074;BME280;64776;42.636;24.358;2022-11-20T10:04:39;89629.16;;;14.71;66.96
76074;BME280;64776;42.636;24.358;2022-11-20T10:07:48;89638.44;;;14.69;67.73
76074;BME280;64776;42.636;24.358;2022-11-20T10:10:56;89636.63;;;14.78;67.71
76074;BME280;64776;42.636;24.358;2022-11-20T10:14:11;89635.22;;;15.08;66.06
76074;BME280;64776;42.636;24.358;2022-11-20T10:17:26;89636.56;;;15.15;66.56
76074;BME280;64776;42.636;24.358;2022-11-20T10:20:38;89637.56;;;15.49;65.79
76074;BME280;64776;42.636;24.358;2022-11-20T10:24:02;89644.78;;;15.54;66.01
76074;BME280;64776;42.636;24.358;2022-11-20T10:27:22;89633.88;;;15.65;64.69
76074;BME280;64776;42.636;24.358;2022-11-20T10:30:27;89617.19;;;15.54;64.65
76074;BME280;64776;42.636;24.358;2022-11-20T10:33:34;89610.97;;;15.45;65.47
76074;BME280;64776;42.636;24.358;2022-11-20T10:36:40;89611.53;;;15.38;65.84
76074;BME280;64776;42.636;24.358;2022-11-20T10:39:49;89613.91;;;15.29;66.60
76074;BME280;64776;42.636;24.358;2022-11-20T10:42:56;89612.38;;;15.15;66.17
76074;BME280;64776;42.636;24.358;2022-11-20T10:46:01;89604.31;;;15.02;66.09
76074;BME280;64776;42.636;24.358;2022-11-20T10:49:11;89608.72;;;14.99;66.59
76074;BME280;64776;42.636;24.358;2022-11-20T10:52:19;89599.56;;;15.08;66.85
76074;BME280;64776;42.636;24.358;2022-11-20T10:55:28;89603.00;;;15.21;65.74
76074;BME280;64776;42.636;24.358;2022-11-20T10:58:37;89598.78;;;15.26;66.08
76074;BME280;64776;42.636;24.358;2022-11-20T11:01:42;89611.44;;;15.31;65.85
76074;BME280;64776;42.636;24.358;2022-11-20T11:04:46;89607.75;;;15.15;65.87
76074;BME280;64776;42.636;24.358;2022-11-20T11:07:49;89602.25;;;15.08;65.26
76074;BME280;64776;42.636;24.358;2022-11-20T11:10:54;89592.63;;;14.99;65.61
76074;BME280;64776;42.636;24.358;2022-11-20T11:14:04;89582.88;;;14.96;65.70
76074;BME280;64776;42.636;24.358;2022-11-20T11:17:20;89589.81;;;14.92;66.22
76074;BME280;64776;42.636;24.358;2022-11-20T11:20:23;89591.88;;;14.99;65.95
76074;BME280;64776;42.636;24.358;2022-11-20T11:23:35;89583.81;;;14.99;65.72
76074;BME280;64776;42.636;24.358;2022-11-20T11:26:36;89580.91;;;14.97;66.18
76074;BME280;64776;42.636;24.358;2022-11-20T11:29:37;89589.16;;;14.86;65.88
76074;BME280;64776;42.636;24.358;2022-11-20T11:33:04;89585.44;;;14.89;65.88
76074;BME280;64776;42.636;24.358;2022-11-20T11:36:23;89582.75;;;14.89;65.73
76074;BME280;64776;42.636;24.358;2022-11-20T11:39:25;89576.31;;;14.79;66.22
76074;BME280;64776;42.636;24.358;2022-11-20T11:42:28;89572.31;;;14.85;66.33
76074;BME280;64776;42.636;24.358;2022-11-20T11:45:29;89584.00;;;14.88;65.01
76074;BME280;64776;42.636;24.358;2022-11-20T11:48:30;89569.53;;;14.91;65.68
76074;BME280;64776;42.636;24.358;2022-11-20T11:51:36;89576.19;;;15.03;65.60
76074;BME280;64776;42.636;24.358;2022-11-20T11:54:43;89579.94;;;15.13;64.98
76074;BME280;64776;42.636;24.358;2022-11-20T11:57:49;89564.06;;;14.96;65.80
76074;BME280;64776;42.636;24.358;2022-11-20T12:00:57;89568.13;;;15.03;66.32
76074;BME280;64776;42.636;24.358;2022-11-20T12:04:04;89566.28;;;15.11;65.81
76074;BME280;64776;42.636;24.358;2022-11-20T12:07:11;89561.81;;;15.00;66.40
76074;BME280;64776;42.636;24.358;2022-11-20T12:10:20;89560.25;;;14.92;66.57
76074;BME280;64776;42.636;24.358;2022-11-20T12:13:30;89567.69;;;14.86;67.14
76074;BME280;64776;42.636;24.358;2022-11-20T12:16:37;89575.59;;;14.78;67.23
76074;BME280;64776;42.636;24.358;2022-11-20T12:19:38;89578.16;;;14.71;67.65
76074;BME280;64776;42.636;24.358;2022-11-20T12:22:46;89571.94;;;14.76;67.43
76074;BME280;64776;42.636;24.358;2022-11-20T12:25:54;89558.63;;;14.70;67.96
76074;BME280;64776;42.636;24.358;2022-11-20T12:29:05;89555.28;;;14.64;67.60
76074;BME280;64776;42.636;24.358;2022-11-20T12:32:34;89563.91;;;14.57;69.42
76074;BME280;64776;42.636;24.358;2022-11-20T12:35:47;89564.72;;;14.52;69.88
76074;BME280;64776;42.636;24.358;2022-11-20T12:39:18;89570.41;;;14.48;70.45
76074;BME280;64776;42.636;24.358;2022-11-20T12:42:55;89580.06;;;14.38;70.40
76074;BME280;64776;42.636;24.358;2022-11-20T12:46:20;89573.88;;;14.43;71.13
76074;BME280;64776;42.636;24.358;2022-11-20T12:49:31;89570.16;;;14.28;72.29
76074;BME280;64776;42.636;24.358;2022-11-20T12:52:40;89576.75;;;14.27;72.31
76074;BME280;64776;42.636;24.358;2022-11-20T12:55:49;89573.13;;;14.24;72.26
76074;BME280;64776;42.636;24.358;2022-11-20T12:59:02;89573.34;;;14.26;72.98
76074;BME280;64776;42.636;24.358;2022-11-20T13:02:18;89574.06;;;14.27;73.40
76074;BME280;64776;42.636;24.358;2022-11-20T13:05:29;89576.88;;;14.16;72.55
76074;BME280;64776;42.636;24.358;2022-11-20T13:08:34;89573.19;;;14.19;70.88
76074;BME280;64776;42.636;24.358;2022-11-20T13:11:42;89578.19;;;14.09;71.76
76074;BME280;64776;42.636;24.358;2022-11-20T13:14:50;89578.19;;;14.09;72.26
76074;BME280;64776;42.636;24.358;2022-11-20T13:17:54;89579.94;;;14.07;71.65
76074;BME280;64776;42.636;24.358;2022-11-20T13:20:56;89586.38;;;13.98;71.76
76074;BME280;64776;42.636;24.358;2022-11-20T13:24:04;89606.09;;;14.01;73.43
76074;BME280;64776;42.636;24.358;2022-11-20T13:27:19;89614.19;;;13.95;71.68
76074;BME280;64776;42.636;24.358;2022-11-20T13:30:21;89625.06;;;13.84;72.27
76074;BME280;64776;42.636;24.358;2022-11-20T13:33:27;89645.69;;;13.41;75.14
76074;BME280;64776;42.636;24.358;2022-11-20T13:36:29;89650.38;;;12.53;78.59
76074;BME280;64776;42.636;24.358;2022-11-20T13:39:31;89651.81;;;12.13;80.59
76074;BME280;64776;42.636;24.358;2022-11-20T13:42:37;89647.88;;;12.20;80.55
76074;BME280;64776;42.636;24.358;2022-11-20T13:45:39;89656.31;;;11.56;81.10
76074;BME280;64776;42.636;24.358;2022-11-20T13:48:41;89648.31;;;11.33;81.70
76074;BME280;64776;42.636;24.358;2022-11-20T13:51:44;89654.88;;;11.32;81.40
76074;BME280;64776;42.636;24.358;2022-11-20T13:54:58;89666.75;;;11.42;81.49
76074;BME280;64776;42.636;24.358;2022-11-20T13:58:26;89666.03;;;11.48;81.83
76074;BME280;64776;42.636;24.358;2022-11-20T14:01:30;89654.59;;;11.53;81.47
76074;BME280;64776;42.636;24.358;2022-11-20T14:04:35;89612.88;;;11.27;82.55
76074;BME280;64776;42.636;24.358;2022-11-20T14:07:40;89629.38;;;11.26;83.12
76074;BME280;64776;42.636;24.358;2022-11-20T14:10:42;89643.00;;;11.22;82.84
76074;BME280;64776;42.636;24.358;2022-11-20T14:13:59;89648.09;;;10.98;83.66
76074;BME280;64776;42.636;24.358;2022-11-20T14:17:07;89597.63;;;10.89;84.54
76074;BME280;64776;42.636;24.358;2022-11-20T14:20:14;89612.44;;;10.79;84.33
76074;BME280;64776;42.636;24.358;2022-11-20T14:23:23;89584.78;;;10.71;84.44
76074;BME280;64776;42.636;24.358;2022-11-20T14:26:24;89582.81;;;10.83;83.69
76074;BME280;64776;42.636;24.358;2022-11-20T14:29:29;89586.47;;;10.69;84.23
76074;BME280;64776;42.636;24.358;2022-11-20T14:32:31;89573.13;;;10.52;84.38
76074;BME280;64776;42.636;24.358;2022-11-20T14:35:38;89567.06;;;10.68;84.52
76074;BME280;64776;42.636;24.358;2022-11-20T14:38:41;89546.44;;;10.96;82.75
76074;BME280;64776;42.636;24.358;2022-11-20T14:41:50;89548.09;;;11.05;82.30
76074;BME280;64776;42.636;24.358;2022-11-20T14:44:56;89573.34;;;10.76;83.40
76074;BME280;64776;42.636;24.358;2022-11-20T14:47:58;89560.75;;;10.77;83.65
76074;BME280;64776;42.636;24.358;2022-11-20T14:51:00;89566.31;;;10.84;83.85
76074;BME280;64776;42.636;24.358;2022-11-20T14:54:11;89559.50;;;10.94;83.25
76074;BME280;64776;42.636;24.358;2022-11-20T14:57:25;89560.97;;;10.95;83.39
76074;BME280;64776;42.636;24.358;2022-11-20T15:00:28;89545.44;;;10.88;83.25
76074;BME280;64776;42.636;24.358;2022-11-20T15:03:33;89551.78;;;10.74;83.41
76074;BME280;64776;42.636;24.358;2022-11-20T15:06:34;89552.75;;;10.60;84.69
76074;BME280;64776;42.636;24.358;2022-11-20T15:09:35;89553.72;;;10.40;85.20
76074;BME280;64776;42.636;24.358;2022-11-20T15:12:38;89546.69;;;10.59;84.71
76074;BME280;64776;42.636;24.358;2022-11-20T15:15:44;89558.09;;;10.71;83.83
76074;BME280;64776;42.636;24.358;2022-11-20T15:18:47;89570.44;;;10.74;83.76
76074;BME280;64776;42.636;24.358;2022-11-20T15:21:48;89575.06;;;10.68;83.93
76074;BME280;64776;42.636;24.358;2022-11-20T15:24:49;89578.72;;;10.65;83.76
76074;BME280;64776;42.636;24.358;2022-11-20T15:27:53;89579.41;;;10.60;84.20
76074;BME280;64776;42.636;24.358;2022-11-20T15:30:56;89577.75;;;10.74;83.58
76074;BME280;64776;42.636;24.358;2022-11-20T15:33:57;89579.91;;;10.75;84.30
76074;BME280;64776;42.636;24.358;2022-11-20T15:36:58;89598.31;;;10.51;84.76
76074;BME280;64776;42.636;24.358;2022-11-20T15:39:59;89598.78;;;10.33;85.46
76074;BME280;64776;42.636;24.358;2022-11-20T15:42:59;89594.44;;;10.52;84.91
76074;BME280;64776;42.636;24.358;2022-11-20T15:46:03;89595.91;;;10.58;84.44
76074;BME280;64776;42.636;24.358;2022-11-20T15:49:05;89589.13;;;10.52;84.54
76074;BME280;64776;42.636;24.358;2022-11-20T15:52:09;89589.38;;;10.54;84.30
76074;BME280;64776;42.636;24.358;2022-11-20T15:55:10;89600.75;;;10.60;84.40
76074;BME280;64776;42.636;24.358;2022-11-20T15:58:11;89614.34;;;10.62;84.05
76074;BME280;64776;42.636;24.358;2022-11-20T16:01:14;89615.81;;;10.63;84.38
76074;BME280;64776;42.636;24.358;2022-11-20T16:04:16;89619.69;;;10.62;84.73